Time;durP1;ratioP1;P1;durP2;ratioP2;P2;SDS_P1;SDS_P2;PMS_P1;PMS_P2;Temp;Humidity;BMP_temperature;BMP_pressure;BME280_temperature;BME280_humidity;BME280_pressure;Samples;Min_cycle;Max_cycle;Signal;HPM_P1;HPM_P2
2022/11/28 00:00:38;;;;;;;45.17;18.77;;;;;;;7.02;66.08;100702.63;7766596;32;40007;-82
2022/11/28 00:04:54;;;;;;;54.42;19.40;;;;;;;7.01;66.06;100695.53;7766499;32;37955;-81
2022/11/28 00:09:12;;;;;;;47.55;20.08;;;;;;;7.09;65.81;100689.00;7765575;32;38175;-83
2022/11/28 00:13:29;;;;;;;47.75;18.52;;;;;;;6.79;67.03;100695.13;7766459;32;39361;-83
2022/11/28 00:17:45;;;;;;;44.22;17.87;;;;;;;7.27;65.46;100683.53;7765902;32;39891;-82
2022/11/28 00:22:01;;;;;;;38.75;18.98;;;;;;;7.00;66.50;100687.63;7752484;32;38806;-83
2022/11/28 00:26:24;;;;;;;49.22;19.65;;;;;;;7.11;65.72;100690.41;7766209;32;36820;-83
2022/11/28 00:30:40;;;;;;;45.40;19.33;;;;;;;7.02;66.32;100686.34;7766366;32;39199;-83
2022/11/28 00:34:56;;;;;;;50.58;20.20;;;;;;;7.31;65.40;100686.62;7766083;32;40011;-82
2022/11/28 00:39:14;;;;;;;44.83;18.67;;;;;;;7.38;64.97;100690.09;7764774;32;38075;-82
2022/11/28 00:43:30;;;;;;;46.92;20.60;;;;;;;7.13;65.50;100688.28;7766013;32;37314;-82
2022/11/28 00:47:48;;;;;;;45.83;18.98;;;;;;;7.11;65.66;100695.81;7765841;32;40038;-84
2022/11/28 00:52:04;;;;;;;42.65;19.50;;;;;;;7.01;66.23;100684.69;7766027;32;40542;-82
2022/11/28 00:56:26;;;;;;;51.10;19.77;;;;;;;7.18;65.76;100694.94;7765535;32;37941;-82
2022/11/28 01:00:43;;;;;;;47.53;19.92;;;;;;;7.31;65.27;100698.31;7766126;32;37247;-84
2022/11/28 01:04:59;;;;;;;41.72;18.08;;;;;;;6.96;66.31;100709.75;7765769;32;40139;-84
2022/11/28 01:09:21;;;;;;;50.20;19.23;;;;;;;7.18;65.63;100695.75;7765555;32;39922;-83
2022/11/28 01:13:37;;;;;;;45.42;18.50;;;;;;;7.22;65.51;100688.00;7765474;32;37897;-84
2022/11/28 01:17:53;;;;;;;43.05;19.50;;;;;;;7.07;65.99;100683.78;7765715;32;37349;-83
2022/11/28 01:22:10;;;;;;;46.92;19.58;;;;;;;7.11;65.74;100684.16;7765650;32;40175;-83
2022/11/28 01:26:27;;;;;;;42.92;18.35;;;;;;;6.80;66.45;100687.84;7765293;32;39837;-83
2022/11/28 01:30:44;;;;;;;37.90;18.37;;;;;;;7.11;65.53;100687.69;7765559;32;39208;-83
2022/11/28 01:35:00;;;;;;;40.72;17.52;;;;;;;7.09;65.51;100676.25;7765201;32;36911;-83
2022/11/28 01:39:16;;;;;;;40.33;17.45;;;;;;;7.03;65.83;100665.47;7764694;32;39831;-82
2022/11/28 01:43:33;;;;;;;46.72;18.73;;;;;;;7.17;65.22;100652.59;7765084;32;39967;-82
2022/11/28 01:47:50;;;;;;;42.25;19.30;;;;;;;7.17;65.27;100655.28;7765232;32;38917;-82
2022/11/28 01:52:14;;;;;;;41.92;18.75;;;;;;;7.00;65.60;100645.06;7751199;32;37201;-82
2022/11/28 01:56:37;;;;;;;42.67;17.48;;;;;;;7.12;65.58;100643.25;7751512;32;39704;-83
2022/11/28 02:00:54;;;;;;;44.53;18.33;;;;;;;6.56;67.31;100628.06;7752014;32;39960;-82
2022/11/28 02:05:10;;;;;;;40.50;17.92;;;;;;;6.75;66.93;100632.44;7764864;32;37765;-82
2022/11/28 02:09:26;;;;;;;41.10;17.35;;;;;;;6.59;67.21;100633.03;7765023;32;37917;-82
2022/11/28 02:14:04;;;;;;;38.78;16.73;;;;;;;6.69;67.00;100627.94;7764873;32;40170;-83
2022/11/28 02:18:39;;;;;;;43.95;17.75;;;;;;;6.77;66.75;100627.59;7765044;32;40039;-82
2022/11/28 02:23:20;;;;;;;42.58;17.00;;;;;;;6.73;66.90;100623.69;7752852;32;37984;-82
2022/11/28 02:28:02;;;;;;;46.70;18.00;;;;;;;6.70;67.33;100620.63;7752901;32;36983;-83
2022/11/28 02:32:49;;;;;;;44.72;18.40;;;;;;;6.70;67.14;100623.31;7764696;32;39358;-83
2022/11/28 02:37:16;;;;;;;47.58;19.20;;;;;;;6.73;66.92;100606.63;7764381;32;40883;-83
2022/11/28 02:42:02;;;;;;;44.38;17.80;;;;;;;6.56;67.65;100601.78;7751485;32;37733;-82
2022/11/28 02:46:30;;;;;;;50.40;19.75;;;;;;;6.58;67.61;100599.69;7725945;32;37799;-83
2022/11/28 02:51:04;;;;;;;38.17;16.80;;;;;;;6.46;68.64;100600.66;7737681;32;39957;-82
2022/11/28 02:55:21;;;;;;;50.22;18.83;;;;;;;6.85;67.16;100598.56;7744318;32;40060;-84
2022/11/28 02:59:38;;;;;;;38.80;17.55;;;;;;;6.86;66.74;100583.94;7750592;32;39294;-84
2022/11/28 03:04:06;;;;;;;39.97;17.15;;;;;;;6.84;66.73;100589.59;7780419;32;37778;-83
2022/11/28 03:08:38;;;;;;;39.25;17.05;;;;;;;6.57;67.95;100591.78;7764361;32;38963;-84
2022/11/28 03:12:58;;;;;;;41.17;17.43;;;;;;;7.13;65.81;100582.53;7763935;32;39888;-84
2022/11/28 03:17:17;;;;;;;44.50;18.67;;;;;;;6.52;67.55;100576.22;7764126;32;38535;-83
2022/11/28 03:22:02;;;;;;;37.97;16.58;;;;;;;6.76;67.08;100576.34;7764031;32;37184;-83
2022/11/28 03:26:43;;;;;;;38.58;16.83;;;;;;;6.84;66.82;100557.06;7762361;32;39001;-83
2022/11/28 03:31:21;;;;;;;41.53;16.90;;;;;;;6.70;66.93;100564.53;7746854;32;38290;-84
2022/11/28 03:35:41;;;;;;;38.53;16.12;;;;;;;7.11;65.40;100540.44;7763531;32;38102;-84
2022/11/28 03:40:01;;;;;;;36.35;15.98;;;;;;;7.15;65.08;100528.87;7763562;32;37042;-84
2022/11/28 03:44:30;;;;;;;33.88;14.63;;;;;;;7.17;64.89;100531.38;7749603;32;40026;-84
2022/11/28 03:48:51;;;;;;;40.90;16.52;;;;;;;7.20;64.82;100530.09;7750797;32;40886;-83
2022/11/28 03:53:12;;;;;;;42.45;16.98;;;;;;;7.06;65.38;100524.03;7762796;32;38721;-83
2022/11/28 03:57:38;;;;;;;42.13;18.75;;;;;;;7.04;65.45;100518.03;7762922;32;38080;-84
2022/11/28 04:02:28;;;;;;;39.40;18.20;;;;;;;7.03;65.69;100514.47;7749926;32;39313;-83
2022/11/28 04:06:55;;;;;;;43.97;17.87;;;;;;;7.01;65.78;100516.59;7762818;32;40597;-83
2022/11/28 04:11:13;;;;;;;42.30;18.62;;;;;;;6.92;66.03;100515.28;7762454;32;38102;-83
2022/11/28 04:15:34;;;;;;;47.62;18.60;;;;;;;7.06;65.80;100519.44;7764954;32;36162;-83
2022/11/28 04:19:53;;;;;;;47.22;18.70;;;;;;;7.03;65.91;100509.03;7766486;32;39843;-84
2022/11/28 04:24:19;;;;;;;43.38;18.25;;;;;;;6.97;66.18;100509.97;7725536;32;39920;-84
2022/11/28 04:28:37;;;;;;;41.45;18.67;;;;;;;6.59;67.56;100508.41;7726972;32;39098;-84
2022/11/28 04:32:58;;;;;;;35.85;17.25;;;;;;;6.44;68.03;100507.97;7752503;32;37213;-84
2022/11/28 04:37:15;;;;;;;39.83;17.08;;;;;;;6.52;66.99;100499.50;7752521;32;37764;-84
2022/11/28 04:41:51;;;;;;;39.47;16.92;;;;;;;6.58;66.53;100491.31;7765960;32;40063;-84
2022/11/28 04:46:14;;;;;;;39.30;17.12;;;;;;;6.94;65.27;100486.03;7753778;32;38826;-84
2022/11/28 04:50:55;;;;;;;43.75;17.42;;;;;;;6.90;64.85;100482.97;7752303;32;37946;-84
2022/11/28 04:55:19;;;;;;;32.08;15.73;;;;;;;6.77;64.81;100500.22;7729955;32;39185;-84
2022/11/28 04:59:36;;;;;;;34.08;14.85;;;;;;;6.58;65.20;100495.91;7765738;32;39922;-83
2022/11/28 05:03:53;;;;;;;33.08;15.55;;;;;;;6.12;66.60;100489.16;7752073;32;38582;-83
2022/11/28 05:08:09;;;;;;;36.05;14.98;;;;;;;6.40;65.25;100499.47;7765435;32;37185;-83
2022/11/28 05:12:25;;;;;;;34.33;16.08;;;;;;;6.23;65.54;100499.25;7751935;32;40158;-84
2022/11/28 05:16:42;;;;;;;36.53;15.52;;;;;;;6.13;65.66;100510.59;7765303;32;39908;-84
2022/11/28 05:20:58;;;;;;;39.33;16.58;;;;;;;6.37;64.91;100516.16;7765700;32;37699;-83
2022/11/28 05:25:15;;;;;;;41.45;17.02;;;;;;;6.23;65.22;100526.31;7765181;32;37186;-83
2022/11/28 05:29:31;;;;;;;37.97;16.33;;;;;;;6.01;66.37;100542.97;7765381;32;40186;-83
2022/11/28 05:33:47;;;;;;;36.05;15.48;;;;;;;5.75;67.17;100529.69;7765766;32;40119;-84
2022/11/28 05:38:03;;;;;;;34.13;15.13;;;;;;;6.18;65.67;100529.69;7764878;32;38772;-84
2022/11/28 05:42:29;;;;;;;36.97;16.48;;;;;;;5.96;66.46;100545.53;7765413;32;37280;-84
2022/11/28 05:46:45;;;;;;;39.00;16.58;;;;;;;5.91;67.24;100545.34;7765219;32;38272;-84
2022/11/28 05:51:04;;;;;;;40.12;16.00;;;;;;;6.22;66.46;100540.09;7765734;32;39670;-83
2022/11/28 05:55:20;;;;;;;36.25;16.35;;;;;;;6.17;66.64;100527.22;7765412;32;37510;-84
2022/11/28 05:59:36;;;;;;;37.70;17.48;;;;;;;6.33;65.96;100517.66;7764913;32;36910;-83
2022/11/28 06:03:58;;;;;;;39.05;15.75;;;;;;;6.71;64.84;100522.84;7765187;32;40148;-83
2022/11/28 06:08:15;;;;;;;37.13;16.70;;;;;;;6.60;65.49;100517.34;7751785;32;40816;-83
2022/11/28 06:12:32;;;;;;;37.60;16.20;;;;;;;6.52;65.85;100534.72;7764690;32;38855;-84
2022/11/28 06:16:48;;;;;;;42.10;17.50;;;;;;;6.25;66.73;100526.91;7764722;32;37879;-83
2022/11/28 06:21:06;;;;;;;38.75;16.20;;;;;;;6.19;67.25;100533.22;7765178;32;39046;-84
2022/11/28 06:25:22;;;;;;;36.25;15.55;;;;;;;6.62;65.91;100529.59;7764664;32;40558;-83
2022/11/28 06:29:38;;;;;;;32.92;16.33;;;;;;;6.72;65.36;100529.06;7764779;32;38073;-84
2022/11/28 06:33:55;;;;;;;41.83;17.15;;;;;;;6.38;66.57;100517.81;7764706;32;37209;-83
2022/11/28 06:38:12;;;;;;;40.85;18.05;;;;;;;6.13;67.58;100521.41;7763159;32;40443;-83
2022/11/28 06:42:29;;;;;;;46.88;19.02;;;;;;;6.58;65.94;100523.81;7763754;32;40743;-83
2022/11/28 06:46:45;;;;;;;40.88;18.02;;;;;;;6.67;65.96;100520.81;7764604;32;38071;-84
2022/11/28 06:51:04;;;;;;;46.83;19.58;;;;;;;6.75;65.07;100523.22;7764754;32;37256;-83
2022/11/28 06:55:20;;;;;;;48.30;19.80;;;;;;;6.75;65.07;100517.78;7750787;32;38618;-84
2022/11/28 06:59:36;;;;;;;45.78;18.95;;;;;;;6.38;66.81;100528.63;7764547;32;40519;-83
2022/11/28 07:03:55;;;;;;;48.08;18.85;;;;;;;6.77;65.21;100527.31;7764343;32;38230;-84
2022/11/28 07:08:12;;;;;;;48.10;19.02;;;;;;;6.41;66.48;100522.78;7764298;32;37162;-84
2022/11/28 07:12:28;;;;;;;41.72;19.80;;;;;;;6.42;66.67;100521.75;7764131;32;39124;-83
2022/11/28 07:16:44;;;;;;;40.95;18.42;;;;;;;6.73;65.57;100526.13;7764062;32;40773;-84
2022/11/28 07:21:01;;;;;;;39.83;18.12;;;;;;;6.45;66.52;100533.97;7764108;32;37963;-82
2022/11/28 07:25:17;;;;;;;44.30;18.65;;;;;;;6.43;66.40;100530.69;7763371;32;37947;-83
2022/11/28 07:29:36;;;;;;;47.20;19.42;;;;;;;6.76;65.98;100525.69;7763709;32;39390;-74
2022/11/28 07:33:52;;;;;;;40.47;17.42;;;;;;;6.88;69.02;100533.88;7763311;32;39985;-73
2022/11/28 07:38:08;;;;;;;44.47;18.35;;;;;;;6.47;67.83;100532.72;7736471;32;37910;-75
2022/11/28 07:42:25;;;;;;;38.80;17.30;;;;;;;6.80;66.08;100526.06;7738914;32;37328;-83
2022/11/28 07:46:41;;;;;;;41.67;16.73;;;;;;;7.42;63.57;100520.38;7761570;32;39276;-83
2022/11/28 07:50:57;;;;;;;42.55;16.95;;;;;;;6.80;64.99;100519.81;7765105;32;41048;-84
2022/11/28 07:55:13;;;;;;;34.97;16.65;;;;;;;6.88;64.36;100520.31;7766397;32;38127;-83
2022/11/28 07:59:30;;;;;;;32.05;15.40;;;;;;;6.96;64.11;100511.03;7765760;32;38004;-85
2022/11/28 08:03:47;;;;;;;40.90;16.83;;;;;;;7.02;63.75;100507.41;7765285;32;39937;-83
2022/11/28 08:08:03;;;;;;;34.03;16.40;;;;;;;6.95;64.01;100504.78;7766590;32;39855;-84
2022/11/28 08:12:19;;;;;;;34.78;16.35;;;;;;;6.65;64.95;100504.78;7766484;32;38806;-84
2022/11/28 08:16:35;;;;;;;39.03;17.00;;;;;;;6.98;63.53;100508.09;7766420;32;38088;-85
2022/11/28 08:20:52;;;;;;;37.05;15.50;;;;;;;7.19;63.06;100506.75;7766484;32;39078;-84
2022/11/28 08:25:08;;;;;;;37.40;15.90;;;;;;;7.25;62.99;100508.53;7765049;32;40588;-84
2022/11/28 08:29:25;;;;;;;38.58;16.85;;;;;;;7.38;62.25;100508.34;7750653;32;37802;-85
2022/11/28 08:33:42;;;;;;;39.85;16.73;;;;;;;7.50;61.60;100502.91;7763811;32;37709;-85
2022/11/28 08:37:58;;;;;;;32.95;15.00;;;;;;;6.76;64.14;100514.00;7763461;32;39307;-85
2022/11/28 08:42:17;;;;;;;35.88;15.98;;;;;;;7.02;62.49;100520.12;7764754;32;39799;-84
2022/11/28 08:46:33;;;;;;;35.33;14.38;;;;;;;7.29;62.06;100515.13;7765841;32;37927;-87
2022/11/28 08:50:51;;;;;;;32.70;15.73;;;;;;;6.99;62.33;100526.84;7766192;32;38074;-72
2022/11/28 08:55:08;;;;;;;32.65;14.35;;;;;;;7.26;65.22;100524.56;7766129;32;40108;-85
2022/11/28 08:59:24;;;;;;;30.23;14.23;;;;;;;7.51;61.89;100521.66;7766006;32;39584;-85
2022/11/28 09:03:40;;;;;;;35.03;15.52;;;;;;;7.56;60.66;100520.16;7765285;32;38144;-85
2022/11/28 09:07:57;;;;;;;31.37;14.98;;;;;;;7.20;61.31;100524.69;7766006;32;37246;-85
2022/11/28 09:12:13;;;;;;;40.38;14.70;;;;;;;7.82;59.74;100525.13;7766047;32;39268;-82
2022/11/28 09:16:29;;;;;;;32.88;14.50;;;;;;;7.63;60.38;100512.72;7765768;32;40070;-84
2022/11/28 09:20:46;;;;;;;30.23;13.70;;;;;;;7.64;59.03;100511.66;7765801;32;38723;-84
2022/11/28 09:25:02;;;;;;;33.35;14.40;;;;;;;7.66;59.25;100507.66;7765690;32;36990;-85
2022/11/28 09:29:19;;;;;;;28.60;12.90;;;;;;;7.64;59.29;100508.94;7765750;32;40026;-84
2022/11/28 09:33:35;;;;;;;30.42;14.05;;;;;;;7.80;58.16;100502.00;7765661;32;39867;-85
2022/11/28 09:37:51;;;;;;;36.10;15.27;;;;;;;8.05;56.52;100486.28;7765229;32;38157;-87
2022/11/28 09:42:29;;;;;;;27.13;13.15;;;;;;;8.17;57.61;100486.25;7761516;32;37189;-85
2022/11/28 09:46:48;;;;;;;26.87;11.95;;;;;;;7.89;58.67;100487.81;7764215;32;39413;-85
2022/11/28 09:51:41;;;;;;;26.35;10.38;;;;;;;8.27;55.31;100475.59;7763843;32;38927;-84
2022/11/28 09:56:14;;;;;;;20.45;9.85;;;;;;;8.50;54.45;100468.47;7763980;32;37761;-84
2022/11/28 10:00:37;;;;;;;18.17;8.80;;;;;;;8.13;53.19;100466.06;7751400;32;37242;-85
2022/11/28 10:05:23;;;;;;;18.30;9.00;;;;;;;7.79;52.65;100457.72;7758476;32;40097;-84
2022/11/28 10:10:11;;;;;;;17.30;8.73;;;;;;;7.88;51.63;100445.47;7765147;32;39902;-83
2022/11/28 10:15:18;;;;;;;21.75;9.95;;;;;;;7.56;53.09;100457.75;7751595;32;37811;-83
2022/11/28 10:19:50;;;;;;;18.58;8.95;;;;;;;8.39;51.32;100445.69;7732681;32;37023;-81
2022/11/28 10:24:38;;;;;;;17.92;9.20;;;;;;;8.32;51.15;100444.19;7751745;32;39303;-82
2022/11/28 10:28:56;;;;;;;17.95;8.68;;;;;;;8.22;50.81;100429.31;7774565;32;41547;-82
2022/11/28 10:33:20;;;;;;;18.70;9.32;;;;;;;8.06;51.11;100424.66;7777393;32;36898;-82
2022/11/28 10:37:38;;;;;;;22.05;10.30;;;;;;;8.06;50.02;100425.47;7791826;32;38186;-81
2022/11/28 10:42:12;;;;;;;21.17;10.40;;;;;;;7.79;51.11;100419.72;7791315;32;40111;-81
2022/11/28 10:46:35;;;;;;;19.48;10.15;;;;;;;7.96;50.13;100414.38;7778376;32;40924;-81
2022/11/28 10:51:10;;;;;;;21.17;10.63;;;;;;;7.41;53.05;100426.47;7777431;32;37673;-81
2022/11/28 10:55:39;;;;;;;21.37;10.23;;;;;;;7.85;51.13;100418.78;7790825;32;37661;-81
2022/11/28 11:00:04;;;;;;;22.77;10.45;;;;;;;8.00;51.80;100414.72;7751656;32;39379;-81
2022/11/28 11:04:25;;;;;;;23.83;11.57;;;;;;;8.20;51.73;100408.91;7763364;32;39730;-83
2022/11/28 11:08:44;;;;;;;27.87;11.68;;;;;;;8.41;51.36;100404.69;7748190;32;38898;-84
2022/11/28 11:13:10;;;;;;;21.73;10.95;;;;;;;8.21;50.81;100405.09;7763083;32;36326;-83
2022/11/28 11:17:34;;;;;;;24.63;11.40;;;;;;;8.35;50.96;100405.69;7763024;32;39243;-85
2022/11/28 11:22:19;;;;;;;25.10;11.88;;;;;;;8.13;51.24;100405.50;7763143;32;40832;-86
2022/11/28 11:26:48;;;;;;;26.65;12.73;;;;;;;7.97;51.87;100401.62;7761672;32;37947;-81
2022/11/28 11:31:13;;;;;;;27.62;12.52;;;;;;;8.00;51.72;100406.59;7760003;32;36999;-84
2022/11/28 11:35:33;;;;;;;24.85;12.55;;;;;;;7.82;51.96;100407.56;7759245;32;40157;-84
2022/11/28 11:39:52;;;;;;;24.50;12.43;;;;;;;7.49;52.74;100401.69;7762488;32;40038;-83
2022/11/28 11:44:18;;;;;;;27.62;12.45;;;;;;;7.68;51.79;100402.38;7761256;32;37830;-84
2022/11/28 11:48:36;;;;;;;22.30;11.80;;;;;;;7.67;51.74;100406.16;7763219;32;37779;-83
2022/11/28 11:53:03;;;;;;;22.37;12.05;;;;;;;7.63;51.64;100396.03;7763298;32;39131;-84
2022/11/28 11:57:22;;;;;;;24.73;11.77;;;;;;;7.44;52.56;100401.59;7760477;32;40014;-84
2022/11/28 12:01:53;;;;;;;23.50;10.85;;;;;;;7.67;51.28;100389.87;7748325;32;38523;-83
2022/11/28 12:06:31;;;;;;;24.95;12.75;;;;;;;7.46;52.07;100390.50;7762521;32;37974;-83
2022/11/28 12:11:06;;;;;;;28.38;12.73;;;;;;;7.31;53.66;100391.81;7762167;32;39321;-85
2022/11/28 12:15:33;;;;;;;27.75;12.48;;;;;;;7.02;54.28;100388.12;7762037;32;40751;-84
2022/11/28 12:20:20;;;;;;;27.70;12.75;;;;;;;7.65;52.08;100380.34;7762374;32;38014;-85
2022/11/28 12:24:53;;;;;;;27.50;13.23;;;;;;;7.59;52.16;100382.13;7762080;32;36863;-84
2022/11/28 12:29:30;;;;;;;27.42;13.02;;;;;;;7.51;52.89;100387.91;7737088;32;37873;-84
2022/11/28 12:34:02;;;;;;;29.77;13.90;;;;;;;7.61;52.90;100376.47;7752351;32;40116;-84
2022/11/28 12:38:30;;;;;;;29.63;14.93;;;;;;;7.30;54.44;100379.28;7765009;32;38572;-83
2022/11/28 12:42:56;;;;;;;30.37;14.02;;;;;;;7.37;54.03;100372.94;7752934;32;37387;-84
2022/11/28 12:47:26;;;;;;;24.75;12.68;;;;;;;6.71;55.15;100387.34;7752702;32;39847;-84
2022/11/28 12:51:59;;;;;;;21.45;11.70;;;;;;;7.12;53.16;100382.09;7750961;32;39980;-84
2022/11/28 12:56:42;;;;;;;24.33;12.48;;;;;;;7.06;53.15;100375.75;7765923;32;37936;-85
2022/11/28 13:01:32;;;;;;;24.77;12.10;;;;;;;6.90;53.67;100379.16;7751635;32;38009;-84
2022/11/28 13:06:15;;;;;;;28.65;13.25;;;;;;;7.31;52.91;100364.69;7765377;32;40059;-84
2022/11/28 13:10:40;;;;;;;28.05;13.77;;;;;;;7.45;53.20;100364.41;7752131;32;40039;-85
2022/11/28 13:15:07;;;;;;;31.83;13.95;;;;;;;7.24;54.20;100363.13;7751941;32;37874;-84
2022/11/28 13:19:56;;;;;;;31.60;14.98;;;;;;;7.26;53.65;100359.13;7751691;32;37268;-83
2022/11/28 13:24:38;;;;;;;30.17;14.70;;;;;;;7.38;53.78;100364.56;7755209;32;39965;-83
2022/11/28 13:29:26;;;;;;;32.43;15.43;;;;;;;7.17;55.26;100360.53;7755818;32;39891;-83
2022/11/28 13:33:55;;;;;;;34.30;15.02;;;;;;;7.40;53.71;100358.87;7760964;32;38723;-83
2022/11/28 13:38:40;;;;;;;32.53;14.77;;;;;;;7.60;52.81;100353.91;7742757;32;37128;-80
2022/11/28 13:43:38;;;;;;;28.90;13.30;;;;;;;7.50;53.47;100357.25;7752203;32;39290;-83
2022/11/28 13:47:54;;;;;;;26.58;12.90;;;;;;;7.24;53.87;100352.28;7763239;32;39709;-82
2022/11/28 13:52:20;;;;;;;30.27;14.20;;;;;;;7.26;53.67;100344.72;7763974;32;38791;-82
2022/11/28 13:56:36;;;;;;;28.38;13.95;;;;;;;7.12;54.42;100339.56;7763431;32;38038;-81
2022/11/28 14:01:06;;;;;;;30.90;14.60;;;;;;;7.53;53.81;100335.03;7765282;32;40176;-82
2022/11/28 14:05:36;;;;;;;32.42;14.73;;;;;;;7.18;54.63;100336.97;7765333;32;40833;-82
2022/11/28 14:10:01;;;;;;;29.35;14.20;;;;;;;6.97;55.19;100333.78;7752003;32;38615;-82
2022/11/28 14:14:32;;;;;;;29.17;13.45;;;;;;;7.09;54.43;100323.75;7765163;32;37316;-82
2022/11/28 14:18:51;;;;;;;27.67;13.88;;;;;;;7.14;54.55;100326.59;7765151;32;39250;-83
2022/11/28 14:23:24;;;;;;;26.05;13.15;;;;;;;6.60;55.25;100328.53;7765175;32;40962;-84
2022/11/28 14:27:47;;;;;;;26.37;12.43;;;;;;;7.14;53.77;100332.00;7765455;32;37565;-83
2022/11/28 14:32:05;;;;;;;26.70;12.52;;;;;;;6.85;54.76;100322.09;7764854;32;38121;-84
2022/11/28 14:36:42;;;;;;;26.70;13.13;;;;;;;6.56;55.63;100321.94;7752694;32;40595;-84
2022/11/28 14:41:10;;;;;;;25.40;13.10;;;;;;;6.51;55.60;100306.38;7752443;32;381816;-82
2022/11/28 14:45:39;;;;;;;23.98;12.05;;;;;;;6.35;56.03;100310.56;7764544;32;38019;-82
2022/11/28 14:50:16;;;;;;;27.15;12.37;;;;;;;6.42;55.93;100317.78;7764877;32;37158;-81
2022/11/28 14:54:41;;;;;;;30.77;12.90;;;;;;;6.35;56.10;100326.81;7764189;32;39965;-82
2022/11/28 14:59:02;;;;;;;23.55;12.90;;;;;;;6.17;56.89;100337.69;7763497;32;39850;-81
2022/11/28 15:03:39;;;;;;;26.58;13.02;;;;;;;6.22;56.94;100337.84;7764527;32;37696;-81
2022/11/28 15:08:17;;;;;;;29.87;14.18;;;;;;;6.29;56.90;100341.25;7764465;32;38003;-82
2022/11/28 15:12:43;;;;;;;28.62;14.52;;;;;;;6.19;57.37;100333.72;7764360;32;40160;-82
2022/11/28 15:17:05;;;;;;;23.80;12.82;;;;;;;6.32;57.30;100340.00;7764326;32;40854;-82
2022/11/28 15:21:21;;;;;;;27.45;13.57;;;;;;;6.14;58.13;100335.44;7750485;32;37967;-83
2022/11/28 15:25:38;;;;;;;30.40;14.05;;;;;;;6.17;57.80;100337.69;7764081;32;37168;-82
2022/11/28 15:29:59;;;;;;;29.12;14.13;;;;;;;6.21;58.04;100338.91;7763436;32;39339;-84
2022/11/28 15:34:26;;;;;;;27.48;14.23;;;;;;;6.19;58.86;100346.41;7750429;32;38933;-84
2022/11/28 15:38:43;;;;;;;28.00;14.77;;;;;;;6.15;59.17;100347.94;7762987;32;38043;-85
2022/11/28 15:43:03;;;;;;;38.35;16.87;;;;;;;6.32;58.38;100335.41;7749077;32;37031;-85
2022/11/28 15:47:27;;;;;;;28.85;14.52;;;;;;;6.19;58.23;100335.56;7750816;32;40010;-84
2022/11/28 15:51:50;;;;;;;30.40;14.25;;;;;;;6.09;59.00;100335.28;7763139;32;40914;-84
2022/11/28 15:56:12;;;;;;;33.07;15.30;;;;;;;6.26;58.18;100341.75;7750251;32;37650;-83
2022/11/28 16:00:28;;;;;;;34.33;15.45;;;;;;;6.05;58.84;100343.06;7762939;32;38124;-84
2022/11/28 16:04:45;;;;;;;31.55;15.38;;;;;;;6.07;58.86;100340.12;7762922;32;39306;-84
2022/11/28 16:09:17;;;;;;;30.80;15.68;;;;;;;5.93;59.32;100342.13;7762938;32;39994;-84
2022/11/28 16:13:36;;;;;;;33.60;16.12;;;;;;;6.23;58.64;100330.53;7764101;32;37870;-85
2022/11/28 16:17:54;;;;;;;36.30;17.42;;;;;;;5.83;60.14;100340.00;7766612;32;36704;-83
2022/11/28 16:22:16;;;;;;;36.88;16.98;;;;;;;5.90;59.67;100348.84;7777686;32;38448;-83
2022/11/28 16:26:38;;;;;;;32.78;17.23;;;;;;;5.52;61.29;100347.22;7761627;32;40058;-85
2022/11/28 16:30:57;;;;;;;35.15;17.58;;;;;;;5.64;61.17;100348.09;7751153;32;37860;-84
2022/11/28 16:35:39;;;;;;;38.58;17.95;;;;;;;5.87;60.83;100346.59;7764179;32;38344;-84
2022/11/28 16:40:18;;;;;;;36.00;17.40;;;;;;;5.70;61.13;100342.84;7764366;32;39326;-84
2022/11/28 16:44:35;;;;;;;30.85;16.40;;;;;;;5.77;61.28;100346.28;7763702;32;39864;-84
2022/11/28 16:48:59;;;;;;;42.38;18.00;;;;;;;5.80;61.22;100345.84;7764225;32;36387;-85
2022/11/28 16:53:35;;;;;;;;;;;;;;;5.98;60.51;100345.84;7783321;32;38049;-85
2022/11/28 16:58:06;;;;;;;33.33;16.62;;;;;;;6.05;60.18;100347.66;7770799;32;39727;-84
2022/11/28 17:02:24;;;;;;;35.08;15.95;;;;;;;5.94;60.60;100344.63;7753852;32;40624;-84
2022/11/28 17:06:41;;;;;;;32.33;15.32;;;;;;;5.92;60.57;100356.75;7764603;32;37802;-86
2022/11/28 17:10:58;;;;;;;36.15;17.25;;;;;;;5.81;61.10;100358.31;7765877;32;37246;-85
2022/11/28 17:15:17;;;;;;;37.47;16.17;;;;;;;6.07;60.11;100359.91;7751543;32;39349;-85
2022/11/28 17:19:34;;;;;;;40.95;17.83;;;;;;;6.04;60.57;100354.94;7764984;32;40878;-84
2022/11/28 17:23:50;;;;;;;41.85;17.00;;;;;;;6.34;59.54;100368.47;7764796;32;38181;-85
2022/11/28 17:28:09;;;;;;;37.13;17.42;;;;;;;6.21;60.43;100368.69;7751265;32;37221;-85
2022/11/28 17:32:33;;;;;;;31.80;16.05;;;;;;;6.23;60.27;100357.59;7765720;32;40121;-85
2022/11/28 17:36:50;;;;;;;41.35;18.52;;;;;;;6.08;61.05;100356.13;7764479;32;41083;-85
2022/11/28 17:41:12;;;;;;;36.53;19.17;;;;;;;6.05;61.12;100361.19;7765390;32;37643;-85
2022/11/28 17:45:30;;;;;;;34.15;16.90;;;;;;;5.92;61.15;100356.75;7765103;32;37864;-83
2022/11/28 17:49:47;;;;;;;36.05;17.95;;;;;;;5.64;61.99;100369.75;7751331;32;39346;-84
2022/11/28 17:54:04;;;;;;;44.35;19.35;;;;;;;5.98;60.77;100362.06;7765203;32;40169;-86
2022/11/28 17:58:22;;;;;;;41.92;19.33;;;;;;;5.85;61.72;100373.06;7764552;32;37702;-84
2022/11/28 18:02:38;;;;;;;39.90;20.42;;;;;;;5.74;61.83;100374.62;7724885;32;35957;-84
2022/11/28 18:06:55;;;;;;;44.08;21.10;;;;;;;5.84;61.93;100368.69;7737847;32;39299;-84
2022/11/28 18:11:12;;;;;;;56.58;23.27;;;;;;;5.61;62.53;100356.66;7738080;32;40726;-84
2022/11/28 18:15:28;;;;;;;40.88;20.73;;;;;;;5.80;61.45;100362.91;7737636;32;37888;-83
2022/11/28 18:19:46;;;;;;;47.67;20.35;;;;;;;5.88;61.08;100366.34;7737279;32;37959;-85
2022/11/28 18:24:07;;;;;;;39.30;19.15;;;;;;;5.70;61.50;100359.09;7738072;32;40276;-86
2022/11/28 18:28:23;;;;;;;42.97;20.65;;;;;;;5.10;63.20;100363.19;7723431;32;40794;-86
2022/11/28 18:32:40;;;;;;;42.88;20.30;;;;;;;5.06;62.86;100359.31;7724274;32;37620;-85
2022/11/28 18:36:59;;;;;;;45.70;20.67;;;;;;;5.24;62.66;100366.59;7745733;32;37358;-84
2022/11/28 18:41:17;;;;;;;43.65;19.27;;;;;;;5.07;63.09;100366.34;7763588;32;40219;-85
2022/11/28 18:45:33;;;;;;;46.03;20.98;;;;;;;5.01;63.55;100372.66;7763780;32;40054;-85
2022/11/28 18:49:50;;;;;;;45.95;21.85;;;;;;;5.07;63.68;100371.75;7763684;32;37916;-83
2022/11/28 18:54:06;;;;;;;41.40;19.10;;;;;;;5.08;63.54;100376.13;7763460;32;37884;-84
2022/11/28 18:58:22;;;;;;;42.00;20.35;;;;;;;5.18;66.39;100378.31;7763999;32;39127;-84
2022/11/28 19:02:39;;;;;;;44.70;20.60;;;;;;;5.41;62.78;100372.28;7763790;32;41157;-84
2022/11/28 19:06:55;;;;;;;41.13;20.10;;;;;;;5.26;62.92;100375.34;7763393;32;38112;-84
2022/11/28 19:11:14;;;;;;;39.05;18.52;;;;;;;5.12;63.13;100377.31;7763381;32;36769;-84
2022/11/28 19:15:30;;;;;;;46.70;19.20;;;;;;;5.15;62.77;100376.88;7764179;32;38455;-84
2022/11/28 19:19:47;;;;;;;46.15;20.80;;;;;;;5.32;62.08;100368.22;7764274;32;39873;-85
2022/11/28 19:24:04;;;;;;;39.38;19.15;;;;;;;5.50;61.57;100370.91;7764039;32;38759;-84
2022/11/28 19:28:20;;;;;;;38.88;19.33;;;;;;;4.98;63.35;100373.91;7737272;32;37744;-85
2022/11/28 19:32:36;;;;;;;44.72;21.48;;;;;;;5.06;63.01;100367.41;7762850;32;37948;-85
2022/11/28 19:36:53;;;;;;;38.50;19.10;;;;;;;5.05;62.87;100369.28;7760555;32;39782;-85
2022/11/28 19:41:14;;;;;;;48.50;19.65;;;;;;;5.05;62.90;100371.16;7761047;32;37609;-87
2022/11/28 19:45:30;;;;;;;40.80;18.65;;;;;;;4.94;62.89;100371.88;7761974;32;36902;-86
2022/11/28 19:49:46;;;;;;;36.90;18.08;;;;;;;4.83;63.74;100381.50;7766783;32;40079;-86
2022/11/28 19:54:03;;;;;;;43.80;19.23;;;;;;;4.85;63.70;100377.56;7756854;32;39980;-87
2022/11/28 19:58:19;;;;;;;39.22;18.42;;;;;;;4.77;64.01;100391.31;7751833;32;38733;-86
2022/11/28 20:02:35;;;;;;;45.45;20.70;;;;;;;4.56;64.58;100397.09;7764156;32;38086;-85
2022/11/28 20:06:51;;;;;;;47.45;20.37;;;;;;;4.41;65.33;100382.00;7751207;32;39408;-84